createdAt,value
2022-08-20T00:01:05.562Z,20.10
2022-08-20T00:03:36.041Z,20.10
2022-08-20T00:06:21.310Z,20.00
2022-08-20T00:08:48.299Z,19.90
2022-08-20T00:11:19.000Z,19.90
2022-08-20T00:13:50.200Z,19.90
2022-08-20T00:16:19.973Z,19.80
2022-08-20T00:18:48.682Z,19.80
2022-08-20T00:21:18.916Z,19.80
2022-08-20T00:23:48.736Z,19.80
2022-08-20T00:26:16.171Z,19.80
2022-08-20T00:28:43.085Z,19.80
2022-08-20T00:31:12.627Z,19.90
2022-08-20T00:33:40.104Z,19.90
2022-08-20T00:36:12.141Z,20.00
2022-08-20T00:38:41.333Z,20.00
2022-08-20T00:41:13.961Z,20.00
2022-08-20T00:43:48.157Z,20.10
2022-08-20T00:46:17.717Z,20.10
2022-08-20T00:48:47.884Z,20.00
2022-08-20T00:51:30.000Z,20.00
2022-08-20T00:54:13.882Z,20.00
2022-08-20T00:56:44.088Z,20.00
2022-08-20T00:59:16.462Z,20.00
2022-08-20T01:01:55.861Z,20.00
2022-08-20T01:04:26.373Z,20.00
2022-08-20T01:06:54.142Z,20.00
2022-08-20T01:09:49.803Z,20.00
2022-08-20T01:12:10.312Z,20.00
2022-08-20T01:14:46.603Z,20.00
2022-08-20T01:17:22.192Z,20.10
2022-08-20T01:19:58.866Z,20.10
2022-08-20T01:22:52.358Z,20.10
2022-08-20T01:25:38.085Z,20.10
2022-08-20T01:28:05.682Z,20.10
2022-08-20T01:30:34.458Z,20.00
2022-08-20T01:33:02.555Z,20.10
2022-08-20T01:35:29.561Z,20.10
2022-08-20T01:37:56.622Z,20.10
2022-08-20T01:40:48.034Z,20.10
2022-08-20T01:43:15.719Z,20.10
2022-08-20T01:45:44.202Z,20.10
2022-08-20T01:48:13.977Z,20.00
2022-08-20T01:50:47.744Z,20.00
2022-08-20T01:53:24.263Z,20.00
2022-08-20T01:55:51.065Z,20.10
2022-08-20T01:58:18.061Z,20.10
2022-08-20T02:00:44.989Z,20.10
2022-08-20T02:03:11.848Z,20.10
2022-08-20T02:05:38.763Z,20.00
2022-08-20T02:08:05.969Z,20.10
2022-08-20T02:10:33.161Z,20.00
2022-08-20T02:13:00.827Z,20.00
2022-08-20T02:15:34.681Z,19.90
2022-08-20T02:18:08.248Z,19.80
2022-08-20T02:20:36.301Z,19.80
2022-08-20T02:23:03.720Z,19.80
2022-08-20T02:25:33.100Z,19.80
2022-08-20T02:28:04.352Z,19.80
2022-08-20T02:30:35.149Z,19.90
2022-08-20T02:33:04.343Z,19.80
2022-08-20T02:35:32.461Z,19.90
2022-08-20T02:38:01.368Z,19.90
2022-08-20T02:40:31.090Z,19.90
2022-08-20T02:42:59.784Z,19.80
2022-08-20T02:45:27.613Z,19.80
2022-08-20T02:47:56.781Z,19.80
2022-08-20T02:50:25.458Z,19.80
2022-08-20T02:52:52.687Z,19.80
2022-08-20T02:55:26.955Z,19.80
2022-08-20T02:58:01.353Z,19.80
2022-08-20T03:00:37.778Z,19.80
2022-08-20T03:03:10.513Z,19.80
2022-08-20T03:05:40.777Z,19.80
2022-08-20T03:08:10.229Z,19.90
2022-08-20T03:10:39.088Z,19.90
2022-08-20T03:13:11.155Z,19.80
2022-08-20T03:15:41.302Z,19.80
2022-08-20T03:18:08.776Z,19.60
2022-08-20T03:20:36.337Z,19.60
2022-08-20T03:23:04.246Z,19.60
2022-08-20T03:28:43.381Z,19.60
2022-08-20T03:31:10.694Z,19.60
2022-08-20T03:33:53.027Z,19.60
2022-08-20T03:36:28.815Z,19.60
2022-08-20T03:38:57.523Z,19.70
2022-08-20T03:41:24.611Z,19.70
2022-08-20T03:43:52.928Z,19.60
2022-08-20T03:46:23.641Z,19.60
2022-08-20T03:48:59.806Z,19.70
2022-08-20T03:51:29.589Z,19.60
2022-08-20T03:53:57.242Z,19.60
2022-08-20T03:56:24.251Z,19.60
2022-08-20T03:58:51.188Z,19.50
2022-08-20T04:01:44.981Z,19.50
2022-08-20T04:04:05.047Z,19.50
2022-08-20T04:06:31.919Z,19.50
2022-08-20T04:08:59.022Z,19.40
2022-08-20T04:11:25.831Z,19.40
2022-08-20T04:13:52.682Z,19.40
2022-08-20T04:16:19.584Z,19.40
2022-08-20T04:19:02.053Z,19.30
2022-08-20T04:21:32.877Z,19.30
2022-08-20T04:24:02.556Z,19.30
2022-08-20T04:26:30.240Z,19.30
2022-08-20T04:28:57.319Z,19.30
2022-08-20T04:31:33.155Z,19.30
2022-08-20T04:34:04.857Z,19.30
2022-08-20T04:36:31.787Z,19.30
2022-08-20T04:38:58.673Z,19.30
2022-08-20T04:41:25.623Z,19.30
2022-08-20T04:43:54.611Z,19.30
2022-08-20T04:46:23.911Z,19.30
2022-08-20T04:48:51.709Z,19.30
2022-08-20T04:51:18.832Z,19.30
2022-08-20T04:53:52.136Z,19.30
2022-08-20T04:56:23.906Z,19.20
2022-08-20T04:58:52.444Z,19.20
2022-08-20T05:01:19.531Z,19.20
2022-08-20T05:03:47.897Z,19.20
2022-08-20T05:06:16.194Z,19.10
2022-08-20T05:08:44.127Z,19.00
2022-08-20T05:11:33.611Z,19.00
2022-08-20T05:13:58.705Z,18.90
2022-08-20T05:16:25.683Z,18.90
2022-08-20T05:18:53.058Z,18.80
2022-08-20T05:21:21.478Z,18.80
2022-08-20T05:23:49.288Z,18.80
2022-08-20T05:26:17.337Z,18.70
2022-08-20T05:28:54.436Z,18.70
2022-08-20T05:31:32.436Z,18.70
2022-08-20T05:34:10.384Z,18.60
2022-08-20T05:36:43.184Z,18.70
2022-08-20T05:39:11.085Z,18.60
2022-08-20T05:41:39.607Z,18.60
2022-08-20T05:44:13.494Z,18.60
2022-08-20T05:46:42.683Z,18.60
2022-08-20T05:49:11.897Z,18.60
2022-08-20T05:51:39.019Z,18.70
2022-08-20T05:54:07.026Z,18.70
2022-08-20T05:56:34.962Z,18.70
2022-08-20T05:59:05.427Z,18.70
2022-08-20T06:01:33.924Z,18.70
2022-08-20T06:04:19.564Z,18.80
2022-08-20T06:06:47.497Z,18.70
2022-08-20T06:09:30.625Z,18.80
2022-08-20T06:12:04.414Z,18.80
2022-08-20T06:14:32.471Z,18.80
2022-08-20T06:17:13.755Z,18.80
2022-08-20T06:19:44.446Z,18.90
2022-08-20T06:22:20.723Z,19.00
2022-08-20T06:24:52.982Z,19.00
2022-08-20T06:27:20.366Z,19.10
2022-08-20T06:29:47.771Z,19.10
2022-08-20T06:32:14.916Z,19.20
2022-08-20T06:34:50.293Z,19.20
2022-08-20T06:37:28.174Z,19.30
2022-08-20T06:40:02.572Z,19.20
2022-08-20T06:42:29.627Z,19.20
2022-08-20T06:44:56.577Z,19.20
2022-08-20T06:47:23.546Z,19.20
2022-08-20T06:49:50.484Z,19.10
2022-08-20T06:52:18.203Z,19.20
2022-08-20T06:54:45.665Z,19.30
2022-08-20T06:57:12.891Z,19.30
2022-08-20T06:59:40.118Z,19.30
2022-08-20T07:02:07.791Z,19.30
2022-08-20T07:04:34.755Z,19.20
2022-08-20T07:07:01.609Z,19.30
2022-08-20T07:09:28.619Z,19.30
2022-08-20T07:11:56.152Z,19.30
2022-08-20T07:14:23.022Z,19.40
2022-08-20T07:16:50.461Z,19.40
2022-08-20T07:19:17.794Z,19.40
2022-08-20T07:21:44.854Z,19.50
2022-08-20T07:24:12.743Z,19.50
2022-08-20T07:26:40.147Z,19.50
2022-08-20T07:29:06.978Z,19.50
2022-08-20T07:31:52.583Z,19.40
2022-08-20T07:34:20.037Z,19.30
2022-08-20T07:36:48.823Z,19.30
2022-08-20T07:39:15.678Z,19.40
2022-08-20T07:41:43.692Z,19.50
2022-08-20T07:44:21.629Z,19.70
2022-08-20T07:46:59.417Z,19.90
2022-08-20T07:49:26.398Z,20.10
2022-08-20T07:51:53.276Z,20.50
2022-08-20T07:54:20.143Z,20.90
2022-08-20T07:56:47.023Z,21.00
2022-08-20T07:59:16.630Z,20.90
2022-08-20T08:01:43.454Z,20.70
2022-08-20T08:04:10.277Z,20.80
2022-08-20T08:06:37.144Z,20.80
2022-08-20T08:09:05.630Z,20.70
2022-08-20T08:11:34.647Z,20.80
2022-08-20T08:14:01.761Z,20.90
2022-08-20T08:16:31.014Z,21.00
2022-08-20T08:18:58.574Z,21.00
2022-08-20T08:21:25.655Z,20.70
2022-08-20T08:23:53.435Z,20.90
2022-08-20T08:26:20.582Z,21.00
2022-08-20T08:28:47.474Z,21.10
2022-08-20T08:31:15.388Z,21.10
2022-08-20T08:33:42.886Z,21.10
2022-08-20T08:36:12.895Z,21.00
2022-08-20T08:38:42.934Z,20.90
2022-08-20T08:41:31.982Z,20.80
2022-08-20T08:44:12.755Z,20.90
2022-08-20T08:46:45.834Z,20.90
2022-08-20T08:49:16.324Z,21.00
2022-08-20T08:51:50.182Z,21.20
2022-08-20T08:54:20.257Z,21.40
2022-08-20T08:56:50.099Z,21.50
2022-08-20T08:59:18.770Z,21.70
2022-08-20T09:01:56.080Z,22.00
2022-08-20T09:04:38.282Z,22.10
2022-08-20T09:07:10.925Z,22.10
2022-08-20T09:09:41.689Z,22.30
2022-08-20T09:12:12.444Z,22.50
2022-08-20T09:14:39.451Z,22.80
2022-08-20T09:17:06.787Z,22.80
2022-08-20T09:19:33.973Z,23.30
2022-08-20T09:22:08.636Z,23.60
2022-08-20T09:24:35.694Z,24.00
2022-08-20T09:27:02.559Z,23.90
2022-08-20T09:29:29.575Z,24.10
2022-08-20T09:32:08.046Z,23.90
2022-08-20T09:34:41.114Z,24.50
2022-08-20T09:37:08.594Z,25.10
2022-08-20T09:39:36.217Z,24.80
2022-08-20T09:42:10.404Z,24.00
2022-08-20T09:44:37.304Z,23.20
2022-08-20T09:47:04.487Z,22.70
2022-08-20T09:49:31.350Z,22.20
2022-08-20T09:51:59.627Z,21.80
2022-08-20T09:54:30.065Z,21.40
2022-08-20T09:57:07.277Z,21.00
2022-08-20T09:59:35.567Z,20.70
2022-08-20T10:02:03.111Z,20.60
2022-08-20T10:04:30.186Z,20.80
2022-08-20T10:06:57.248Z,20.80
2022-08-20T10:09:24.495Z,20.60
2022-08-20T10:11:51.543Z,20.40
2022-08-20T10:14:18.370Z,20.30
2022-08-20T10:16:45.242Z,20.40
2022-08-20T10:19:12.043Z,20.60
2022-08-20T10:21:39.434Z,20.90
2022-08-20T10:24:06.424Z,21.00
2022-08-20T10:26:33.380Z,21.10
2022-08-20T10:29:00.197Z,21.00
2022-08-20T10:31:27.032Z,21.00
2022-08-20T10:33:53.878Z,21.50
2022-08-20T10:36:20.765Z,21.60
2022-08-20T10:38:49.077Z,21.60
2022-08-20T10:41:16.165Z,21.80
2022-08-20T10:43:43.056Z,22.30
2022-08-20T10:46:10.019Z,23.00
2022-08-20T10:48:37.234Z,23.00
2022-08-20T10:51:04.687Z,23.40
2022-08-20T10:53:32.027Z,23.60
2022-08-20T10:55:59.332Z,24.00
2022-08-20T10:58:27.183Z,24.60
2022-08-20T11:01:04.690Z,25.40
2022-08-20T11:03:31.753Z,26.20
2022-08-20T11:05:58.632Z,27.10
2022-08-20T11:08:34.076Z,27.80
2022-08-20T11:11:01.858Z,27.70
2022-08-20T11:13:28.713Z,26.40
2022-08-20T11:15:55.559Z,25.20
2022-08-20T11:18:22.386Z,25.50
2022-08-20T11:20:49.459Z,26.00
2022-08-20T11:23:16.315Z,26.40
2022-08-20T11:25:43.173Z,26.80
2022-08-20T11:28:10.290Z,26.70
2022-08-20T11:30:37.718Z,26.20
2022-08-20T11:33:05.066Z,25.20
2022-08-20T11:35:48.530Z,24.70
2022-08-20T11:38:17.445Z,24.70
2022-08-20T11:40:44.343Z,24.50
2022-08-20T11:43:16.313Z,24.50
2022-08-20T11:45:54.585Z,24.10
2022-08-20T11:48:21.772Z,23.80
2022-08-20T11:50:49.568Z,24.20
2022-08-20T11:53:16.531Z,24.90
2022-08-20T11:55:44.193Z,25.00
2022-08-20T11:58:11.150Z,24.60
2022-08-20T12:00:38.023Z,24.30
2022-08-20T12:03:08.897Z,24.30
2022-08-20T12:05:39.659Z,24.20
2022-08-20T12:08:08.506Z,24.50
2022-08-20T12:10:37.553Z,24.90
2022-08-20T12:13:06.292Z,25.20
2022-08-20T12:15:37.728Z,25.80
2022-08-20T12:18:08.978Z,26.50
2022-08-20T12:20:39.347Z,26.30
2022-08-20T12:23:06.419Z,26.30
2022-08-20T12:25:39.119Z,26.40
2022-08-20T12:28:12.121Z,26.30
2022-08-20T12:30:39.330Z,27.50
2022-08-20T12:33:06.510Z,28.00
2022-08-20T12:35:33.663Z,27.40
2022-08-20T12:38:05.208Z,26.70
2022-08-20T12:40:33.405Z,25.50
2022-08-20T12:43:01.965Z,25.30
2022-08-20T12:45:29.936Z,25.90
2022-08-20T12:48:06.038Z,26.40
2022-08-20T12:50:35.135Z,26.90
2022-08-20T12:53:03.198Z,27.60
2022-08-20T12:55:30.703Z,27.20
2022-08-20T12:58:02.464Z,27.00
2022-08-20T13:00:33.492Z,27.20
2022-08-20T13:03:02.157Z,26.80
2022-08-20T13:05:30.654Z,26.50
2022-08-20T13:07:58.609Z,27.30
2022-08-20T13:10:31.920Z,26.90
2022-08-20T13:13:03.624Z,27.30
2022-08-20T13:15:34.809Z,27.40
2022-08-20T13:18:05.266Z,27.30
2022-08-20T13:20:34.206Z,28.00
2022-08-20T13:23:05.176Z,28.40
2022-08-20T13:25:34.841Z,27.60
2022-08-20T13:28:04.791Z,26.90
2022-08-20T13:30:35.568Z,27.10
2022-08-20T13:33:02.761Z,27.00
2022-08-20T13:35:30.259Z,26.50
2022-08-20T13:37:57.287Z,26.00
2022-08-20T13:40:24.345Z,26.30
2022-08-20T13:42:51.379Z,27.00
2022-08-20T13:45:18.582Z,26.30
2022-08-20T13:47:45.829Z,26.90
2022-08-20T13:50:19.150Z,27.60
2022-08-20T13:52:46.188Z,28.80
2022-08-20T13:55:16.416Z,29.30
2022-08-20T13:57:44.092Z,28.60
2022-08-20T14:00:15.813Z,28.00
2022-08-20T14:02:43.182Z,28.30
2022-08-20T14:05:10.903Z,27.80
2022-08-20T14:07:39.138Z,27.80
2022-08-20T14:10:12.110Z,27.70
2022-08-20T14:12:39.326Z,28.30
2022-08-20T14:15:07.154Z,27.70
2022-08-20T14:17:37.194Z,26.90
2022-08-20T14:20:11.535Z,26.30
2022-08-20T14:22:38.357Z,26.10
2022-08-20T14:25:06.734Z,26.00
2022-08-20T14:27:34.803Z,26.40
2022-08-20T14:30:02.618Z,26.40
2022-08-20T14:32:29.513Z,27.00
2022-08-20T14:34:59.100Z,27.70
2022-08-20T14:37:38.152Z,27.30
2022-08-20T14:40:19.884Z,27.00
2022-08-20T14:42:51.640Z,26.60
2022-08-20T14:45:19.733Z,27.00
2022-08-20T14:47:54.088Z,27.40
2022-08-20T14:50:30.687Z,28.00
2022-08-20T14:52:58.046Z,28.50
2022-08-20T14:55:31.549Z,28.30
2022-08-20T14:57:58.783Z,27.10
2022-08-20T15:00:31.010Z,26.70
2022-08-20T15:02:58.169Z,26.20
2022-08-20T15:05:25.942Z,26.10
2022-08-20T15:07:54.373Z,25.70
2022-08-20T15:10:29.782Z,25.40
2022-08-20T15:12:57.148Z,25.20
2022-08-20T15:15:25.054Z,24.90
2022-08-20T15:18:00.013Z,24.50
2022-08-20T15:20:31.083Z,24.10
2022-08-20T15:22:58.490Z,24.10
2022-08-20T15:25:29.211Z,24.00
2022-08-20T15:28:05.028Z,23.80
2022-08-20T15:30:33.402Z,23.40
2022-08-20T15:33:00.825Z,23.30
2022-08-20T15:35:28.507Z,23.20
2022-08-20T15:37:57.471Z,23.10
2022-08-20T15:40:28.503Z,23.10
2022-08-20T15:42:57.247Z,23.00
2022-08-20T15:45:24.683Z,23.00
2022-08-20T15:47:59.892Z,23.00
2022-08-20T15:50:48.001Z,22.90
2022-08-20T15:53:43.742Z,22.90
2022-08-20T15:56:25.573Z,22.80
2022-08-20T15:59:13.733Z,22.80
2022-08-20T16:01:52.584Z,22.70
2022-08-20T16:05:01.220Z,22.70
2022-08-20T16:07:45.778Z,22.60
2022-08-20T16:10:28.808Z,22.60
2022-08-20T16:12:58.937Z,22.60
2022-08-20T16:15:40.507Z,22.60
2022-08-20T16:18:23.242Z,22.70
2022-08-20T16:20:53.689Z,22.70
2022-08-20T16:23:30.391Z,22.70
2022-08-20T16:26:28.335Z,22.80
2022-08-20T16:29:18.813Z,22.90
2022-08-20T16:32:00.683Z,23.00
2022-08-20T16:35:16.390Z,23.00
2022-08-20T16:37:55.726Z,22.90
2022-08-20T16:40:31.943Z,22.90
2022-08-20T16:43:02.643Z,22.70
2022-08-20T16:45:36.854Z,22.80
2022-08-20T16:48:09.711Z,22.80
2022-08-20T16:50:51.391Z,22.90
2022-08-20T16:53:23.276Z,23.00
2022-08-20T16:55:50.430Z,23.40
2022-08-20T16:58:17.370Z,23.50
2022-08-20T17:00:45.198Z,23.50
2022-08-20T17:03:33.642Z,23.60
2022-08-20T17:06:31.919Z,23.50
2022-08-20T17:08:59.954Z,23.50
2022-08-20T17:11:32.769Z,23.40
2022-08-20T17:14:09.157Z,23.40
2022-08-20T17:16:41.233Z,23.40
2022-08-20T17:19:17.930Z,23.40
2022-08-20T17:21:46.411Z,23.40
2022-08-20T17:24:23.939Z,23.50
2022-08-20T17:27:01.127Z,23.90
2022-08-20T17:29:33.276Z,24.40
2022-08-20T17:32:17.518Z,24.80
2022-08-20T17:34:48.017Z,25.20
2022-08-20T17:37:22.824Z,25.20
2022-08-20T17:39:56.260Z,25.20
2022-08-20T17:42:27.214Z,25.20
2022-08-20T17:45:14.459Z,25.40
2022-08-20T17:47:43.336Z,25.40
2022-08-20T17:50:17.611Z,25.30
2022-08-20T17:52:56.183Z,25.50
2022-08-20T17:55:23.261Z,25.30
2022-08-20T17:57:55.972Z,24.40
2022-08-20T18:00:26.460Z,24.40
2022-08-20T18:03:14.609Z,24.10
2022-08-20T18:05:42.510Z,24.00
2022-08-20T18:08:25.018Z,23.60
2022-08-20T18:11:12.655Z,23.20
2022-08-20T18:13:55.381Z,22.80
2022-08-20T18:17:06.647Z,22.40
2022-08-20T18:20:00.279Z,22.00
2022-08-20T18:22:30.366Z,21.80
2022-08-20T18:25:18.055Z,21.50
2022-08-20T18:27:48.545Z,21.30
2022-08-20T18:30:19.159Z,21.10
2022-08-20T18:32:48.516Z,20.90
2022-08-20T18:35:25.245Z,20.70
2022-08-20T18:37:52.644Z,20.50
2022-08-20T18:40:28.783Z,20.20
2022-08-20T18:42:58.762Z,19.90
2022-08-20T18:45:35.538Z,19.60
2022-08-20T18:48:04.046Z,19.40
2022-08-20T18:50:39.964Z,19.10
2022-08-20T18:53:21.568Z,18.90
2022-08-20T18:56:08.710Z,18.80
2022-08-20T18:58:57.707Z,18.50
2022-08-20T19:01:25.218Z,18.40
2022-08-20T19:03:54.679Z,18.30
2022-08-20T19:06:48.764Z,18.10
2022-08-20T19:09:46.108Z,18.00
2022-08-20T19:12:31.477Z,17.90
2022-08-20T19:15:07.501Z,17.80
2022-08-20T19:17:41.803Z,17.60
2022-08-20T19:20:14.821Z,17.50
2022-08-20T19:22:43.842Z,17.40
2022-08-20T19:25:29.287Z,17.30
2022-08-20T19:27:59.167Z,17.20
2022-08-20T19:30:35.396Z,17.10
2022-08-20T19:33:03.189Z,17.10
2022-08-20T19:35:30.255Z,17.00
2022-08-20T19:37:57.167Z,16.90
2022-08-20T19:40:39.268Z,16.90
2022-08-20T19:43:14.617Z,16.80
2022-08-20T19:45:50.486Z,16.70
2022-08-20T19:48:32.392Z,16.50
2022-08-20T19:51:09.541Z,16.50
2022-08-20T19:53:42.902Z,16.40
2022-08-20T19:56:14.066Z,16.30
2022-08-20T19:58:41.825Z,16.20
2022-08-20T20:01:27.273Z,16.10
2022-08-20T20:04:01.890Z,16.10
2022-08-20T20:06:30.322Z,16.00
2022-08-20T20:09:03.341Z,15.90
2022-08-20T20:11:35.374Z,15.80
2022-08-20T20:14:05.476Z,15.70
2022-08-20T20:16:33.518Z,15.60
2022-08-20T20:19:24.805Z,15.50
2022-08-20T20:22:03.280Z,15.60
2022-08-20T20:24:42.828Z,15.60
2022-08-20T20:27:21.044Z,15.60
2022-08-20T20:29:49.395Z,15.60
2022-08-20T20:32:21.868Z,15.70
2022-08-20T20:34:58.411Z,15.60
2022-08-20T20:37:50.889Z,15.50
2022-08-20T20:40:50.162Z,15.40
2022-08-20T20:43:27.299Z,15.40
2022-08-20T20:46:15.977Z,15.30
2022-08-20T20:48:46.082Z,15.10
2022-08-20T20:51:31.637Z,15.10
2022-08-20T20:54:04.743Z,15.10
2022-08-20T20:56:38.377Z,15.00
2022-08-20T20:59:07.490Z,14.90
2022-08-20T21:01:49.444Z,14.80
2022-08-20T21:04:24.881Z,15.00
2022-08-20T21:06:54.441Z,15.10
2022-08-20T21:09:23.173Z,15.10
2022-08-20T21:11:50.153Z,15.00
2022-08-20T21:14:18.153Z,14.80
2022-08-20T21:16:45.221Z,14.80
2022-08-20T21:19:12.932Z,14.70
2022-08-20T21:21:40.235Z,14.70
2022-08-20T21:24:08.073Z,14.60
2022-08-20T21:26:35.734Z,14.70
2022-08-20T21:29:04.186Z,14.60
2022-08-20T21:31:34.635Z,14.70
2022-08-20T21:34:01.926Z,14.60
2022-08-20T21:36:29.278Z,14.50
2022-08-20T21:38:56.245Z,14.40
2022-08-20T21:41:29.817Z,14.50
2022-08-20T21:43:57.834Z,14.50
2022-08-20T21:46:25.933Z,14.40
2022-08-20T21:48:52.891Z,14.50
2022-08-20T21:51:19.751Z,14.50
2022-08-20T21:53:46.933Z,14.40
2022-08-20T21:56:13.756Z,14.30
2022-08-20T21:58:40.671Z,14.30
2022-08-20T22:01:07.917Z,14.20
2022-08-20T22:03:38.876Z,14.20
2022-08-20T22:06:10.639Z,14.20
2022-08-20T22:08:37.676Z,14.20
2022-08-20T22:11:06.985Z,14.10
2022-08-20T22:13:34.386Z,14.10
2022-08-20T22:16:04.605Z,14.00
2022-08-20T22:18:31.665Z,13.90
2022-08-20T22:20:59.441Z,13.90
2022-08-20T22:23:26.505Z,13.80
2022-08-20T22:25:53.435Z,13.80
2022-08-20T22:28:20.544Z,13.90
2022-08-20T22:30:47.701Z,13.90
2022-08-20T22:33:19.976Z,13.90
2022-08-20T22:35:50.535Z,13.80
2022-08-20T22:38:17.667Z,13.80
2022-08-20T22:40:44.892Z,13.90
2022-08-20T22:43:12.501Z,13.90
2022-08-20T22:45:41.238Z,13.90
2022-08-20T22:48:08.439Z,13.90
2022-08-20T22:50:37.402Z,13.80
2022-08-20T22:53:06.294Z,13.90
2022-08-20T22:55:33.183Z,13.90
2022-08-20T22:58:00.027Z,14.00
2022-08-20T23:00:28.086Z,14.00
2022-08-20T23:02:57.225Z,14.00
2022-08-20T23:05:27.583Z,13.90
2022-08-20T23:07:56.711Z,13.90
2022-08-20T23:10:25.007Z,13.90
2022-08-20T23:12:51.931Z,13.90
2022-08-20T23:15:19.369Z,13.90
2022-08-20T23:17:46.672Z,14.00
2022-08-20T23:20:17.174Z,13.90
2022-08-20T23:22:44.936Z,13.80
2022-08-20T23:25:13.257Z,13.70
2022-08-20T23:27:48.620Z,13.60
2022-08-20T23:30:17.336Z,13.50
2022-08-20T23:32:44.251Z,13.40
2022-08-20T23:35:12.359Z,13.40
2022-08-20T23:37:44.940Z,13.60
2022-08-20T23:40:14.108Z,13.80
2022-08-20T23:42:41.411Z,14.00
2022-08-20T23:45:08.918Z,13.80
2022-08-20T23:47:36.837Z,13.70
2022-08-20T23:50:06.323Z,13.50
2022-08-20T23:52:33.372Z,13.40
2022-08-20T23:55:00.279Z,13.30
2022-08-20T23:57:27.231Z,13.30
2022-08-20T23:59:54.101Z,13.30
